ADDS TAF Board (Experimental) INFO

IDs: Format: Expanded Condensed

Updated at: 0829 UTC 29 Nov 2014

KSEA - Seattle-Tacoma Intl, WA, US

Issued at 0539 UTC 29 Nov 2014
Time0753Z29/09Z29/10Z29/11Z29/12Z29/13Z29/14Z29/15Z29/16Z29/17Z29/18Z29/19Z29/20Z29/21Z
TypeOBSPRVLPRVLPRVLPRVLPRVLPRVLPRVLPRVLPRVLPRVLPRVLPRVLPRVL
VIS10>6>6>6>6>6>6>6>6>6>6>6>6>6
CIG70252525202020202020--------
CoverOVCOVCOVCOVCBKNBKNBKNBKNBKNBKNSCTSCTSCTSCT
FltCat--MVFRMVFRMVFRMVFRMVFRMVFRMVFRMVFRMVFRVFRVFRVFRVFR
WX--VCSHVCSHVCSH-SHSN-SHSN-SHSN-SHSN-SHSN-SHSN--------
WDir20020020020035035035035035035020202020
WSpd1410101088888812121212
WGst19------------------20202020
R16/34
XWnd-5-3-3-3-1-1-1-1-1-14444
XGst-6------------------7777
HWnd13999-8-8-8-8-8-8-11-11-11-11
HGst18-------------------19-19-19-19
Raw TAF
KSEA 290539Z 2906/3012 20010KT P6SM VCSH BKN025 OVC035
  FM291200 35008KT P6SM -SHSN BKN020 BKN040
  FM291800 02012G20KT P6SM SCT040
  FM300000 03010KT P6SM SKC


Raw METAR
KSEA 290753Z 20014G19KT 10SM FEW010 SCT018 OVC070 04/02 A2952 RMK AO2 SLP004 T00440017 401280033
KSEA 290748Z 20015G19KT 10SM FEW010 SCT018 OVC070 04/02 A2952 RMK AO2 401280033

TAF Board Legend

Hazard VFR MVFR IFR LIFR
Visibility (sm) >5 3≤X≤5 1≤X<3 <1
Ceiling (100 ft) >30 10≤X≤30 5≤X<10 <5
Wind Speed (kt) <10 10≤X<20 20≤X<30 ≥30
Wind Gust (kt) <15 15≤X<25 25≤X<35 ≥35
Weather No Wx Reported VCTS,-TS,-FZRA TS,FZRA +TS,+FZRA


Page loaded:  08:29 UTC  |   12:29 AM Pacific  |   01:29 AM Mountain  |   02:29 AM Central  |   03:29 AM Eastern

 

ADVISORIES

FORECASTS

FORECASTS

OBSERVATIONS

USER TOOLS

ABOUT US